Terminal Aerodrome Forecast
Issued by NWS Austin/San Antonio, TX

Home | Current Version | Previous Version | Text Only | Print | Product List | Glossary On
Versions: 1 2 3 4 5 6 7 8 9 10 11 12 13 14 15 16 17 18 19
000
FTUS44 KEWX 181800 AAA
TAFAUS
TAF AMD
KAUS 181859Z 1819/1924 01005KT 4SM BR OVC009
     FM182100 03005KT P6SM OVC015
     FM190100 04005KT P6SM OVC007
     FM190300 03005KT 3SM BR VCSH OVC004
     FM190600 01008KT 3SM -SHRA BR OVC003 PROB30 1906/1912 1SM TSRA
      BR BKN004 OVC035CB
     FM191600 01010KT 5SM BR VCSH OVC008
     FM191800 01009KT P6SM OVC015=

USA.gov is the U.S. government's official web portal to all federal, state and local government web resources and services.